Time;durP1;ratioP1;P1;durP2;ratioP2;P2;SDS_P1;SDS_P2;PMS_P1;PMS_P2;Temp;Humidity;BMP_temperature;BMP_pressure;BME280_temperature;BME280_humidity;BME280_pressure;Samples;Min_cycle;Max_cycle;Signal;HPM_P1;HPM_P2
2021/12/03 02:50:14;;;;;;;1.93;1.83;;;;;;;-0.18;100.00;95990.28;5094433;28;20460;-72
2021/12/03 06:27:48;;;;;;;15.50;11.30;;;;;;;-1.26;100.00;96245.63;5040594;28;20421;-72
2021/12/03 06:30:18;;;;;;;13.70;11.37;;;;;;;-1.36;100.00;96250.75;5055974;28;20440;-72
2021/12/03 06:32:46;;;;;;;12.13;10.73;;;;;;;-1.58;100.00;96253.50;5072053;28;20472;-72
2021/12/03 06:35:14;;;;;;;13.70;10.20;;;;;;;-1.61;100.00;96256.56;5055809;28;20443;-72
2021/12/03 06:37:43;;;;;;;6.90;6.17;;;;;;;-1.71;100.00;96253.16;5056283;28;20939;-72
2021/12/03 06:40:14;;;;;;;11.50;10.40;;;;;;;-1.52;100.00;96259.50;5055728;28;20460;-72
2021/12/03 06:42:41;;;;;;;10.67;9.77;;;;;;;-1.46;100.00;96266.28;5072378;28;20451;-72
2021/12/03 06:45:08;;;;;;;10.30;9.40;;;;;;;-1.77;100.00;96223.84;5055808;28;20429;-72
2021/12/03 06:47:35;;;;;;;11.80;10.60;;;;;;;-1.59;100.00;96262.31;5055857;28;20493;-72
2021/12/03 06:50:04;;;;;;;9.00;8.20;;;;;;;-1.62;100.00;96274.97;5072430;28;20424;-72
2021/12/03 06:52:32;;;;;;;12.10;7.80;;;;;;;-1.67;100.00;96254.22;5072251;28;20460;-72
2021/12/03 06:55:02;;;;;;;24.33;21.77;;;;;;;-1.60;100.00;96272.94;5055793;28;20440;-72
2021/12/03 06:57:29;;;;;;;81.33;60.23;;;;;;;-1.66;100.00;96266.91;5038822;28;20474;-72
2021/12/03 06:59:56;;;;;;;48.53;38.77;;;;;;;-1.50;100.00;96299.69;5072001;28;20460;-72
2021/12/03 07:02:22;;;;;;;14.10;12.90;;;;;;;-1.23;100.00;96301.38;5072044;28;20503;-72
2021/12/03 07:04:49;;;;;;;14.57;13.37;;;;;;;-1.54;100.00;96283.06;5071986;28;20440;-72
2021/12/03 07:07:16;;;;;;;10.40;8.37;;;;;;;-1.60;100.00;96270.34;5073474;28;20436;-72
2021/12/03 07:09:43;;;;;;;6.40;5.80;;;;;;;-1.41;100.00;96312.19;5062025;28;20452;-72
2021/12/03 07:12:10;;;;;;;7.30;6.67;;;;;;;-1.75;100.00;96286.53;5073201;28;20499;-72
2021/12/03 07:14:37;;;;;;;6.80;6.10;;;;;;;-1.57;100.00;96316.50;5073049;28;20436;-72
2021/12/03 07:17:06;;;;;;;6.37;5.80;;;;;;;-1.46;100.00;96318.13;5071804;28;20527;-72
2021/12/03 07:19:33;;;;;;;8.83;7.40;;;;;;;-1.43;100.00;96316.84;5073011;28;20460;-72
2021/12/03 07:22:01;;;;;;;9.57;8.60;;;;;;;-1.32;100.00;96319.25;5088756;28;20859;-72
2021/12/03 07:24:27;;;;;;;39.10;31.20;;;;;;;-1.18;100.00;96314.41;5088852;28;20492;-72
2021/12/03 07:26:54;;;;;;;63.23;43.70;;;;;;;-1.28;100.00;96298.78;5072888;28;20482;-72
2021/12/03 07:29:21;;;;;;;119.23;67.60;;;;;;;-1.00;100.00;96318.38;5055176;28;20486;-72
2021/12/03 07:31:48;;;;;;;74.57;44.97;;;;;;;-1.04;100.00;96302.53;5056462;28;20517;-72
2021/12/03 07:34:15;;;;;;;38.80;27.80;;;;;;;-0.67;100.00;96346.56;5074139;28;20432;-72
2021/12/03 07:36:42;;;;;;;23.00;18.80;;;;;;;-0.87;100.00;96330.09;5072878;28;20924;-72
2021/12/03 07:39:09;;;;;;;10.50;8.43;;;;;;;-0.94;100.00;96328.50;5071395;28;20468;-72
2021/12/03 07:41:40;;;;;;;6.73;4.73;;;;;;;-0.93;100.00;96331.91;5054725;28;20464;-72
2021/12/03 07:44:09;;;;;;;7.20;5.17;;;;;;;-0.81;100.00;96337.66;5088202;28;20413;-72
2021/12/03 07:46:36;;;;;;;7.13;6.27;;;;;;;-0.54;100.00;96354.88;5087949;28;20432;-72
2021/12/03 07:49:03;;;;;;;5.90;5.30;;;;;;;-0.49;100.00;96367.91;5072487;28;20428;-72
2021/12/03 07:51:31;;;;;;;8.50;4.77;;;;;;;-0.46;100.00;96372.59;5070929;28;20483;-72
2021/12/03 07:53:58;;;;;;;7.20;5.07;;;;;;;-0.81;100.00;96329.88;5054418;28;20478;-72
2021/12/03 07:56:25;;;;;;;4.87;4.47;;;;;;;-0.50;100.00;96371.53;5071296;28;21118;-72
2021/12/03 07:58:51;;;;;;;7.07;5.00;;;;;;;-0.40;100.00;96368.94;5087990;28;20497;-71
2021/12/03 08:01:19;;;;;;;4.23;3.90;;;;;;;-0.55;100.00;96358.53;5087483;28;20472;-71
2021/12/03 08:03:46;;;;;;;4.50;3.77;;;;;;;-0.46;100.00;96383.75;5087613;28;20420;-71
2021/12/03 08:06:13;;;;;;;10.83;4.37;;;;;;;-0.62;100.00;96351.75;5070506;28;20441;-71
2021/12/03 08:08:41;;;;;;;6.63;6.03;;;;;;;-0.67;100.00;96337.97;5071773;28;20445;-72
2021/12/03 08:11:08;;;;;;;6.73;6.03;;;;;;;-0.38;100.00;96392.88;5072911;28;20456;-71
2021/12/03 08:13:35;;;;;;;5.37;4.27;;;;;;;-0.39;100.00;96388.72;5054214;28;21202;-72
2021/12/03 08:16:03;;;;;;;7.20;5.80;;;;;;;-0.33;100.00;96398.06;5037887;28;20946;-72
2021/12/03 08:18:30;;;;;;;5.77;5.27;;;;;;;-0.31;100.00;96399.38;5072297;28;20432;-72
2021/12/03 08:20:57;;;;;;;5.87;4.63;;;;;;;-0.39;100.00;96394.69;5072189;28;20476;-72
2021/12/03 08:23:24;;;;;;;6.03;5.40;;;;;;;-0.29;100.00;96406.91;5053830;28;20989;-72
2021/12/03 08:25:51;;;;;;;5.83;5.23;;;;;;;-0.26;100.00;96385.66;5054039;28;20956;-72
2021/12/03 08:28:18;;;;;;;6.03;4.60;;;;;;;-0.20;100.00;96397.59;5070678;28;20440;-72
2021/12/03 08:30:45;;;;;;;7.63;6.47;;;;;;;-0.17;100.00;96402.28;5053878;28;20529;-72
2021/12/03 08:33:16;;;;;;;6.63;4.53;;;;;;;-0.17;100.00;96412.66;5053678;28;20459;-72
2021/12/03 08:35:42;;;;;;;6.20;4.93;;;;;;;-0.05;100.00;96408.03;5037375;28;20436;-72
2021/12/03 08:38:09;;;;;;;6.30;5.30;;;;;;;0.03;100.00;96406.75;5070670;28;20446;-72
2021/12/03 08:40:56;;;;;;;8.60;6.77;;;;;;;0.17;100.00;96414.84;5053624;28;20550;-72
2021/12/03 08:43:22;;;;;;;5.87;5.37;;;;;;;-0.11;100.00;96374.50;5070664;28;20494;-72
2021/12/03 08:45:54;;;;;;;7.80;6.63;;;;;;;-0.10;100.00;96376.84;5054188;28;20444;-72
2021/12/03 08:48:26;;;;;;;5.83;4.70;;;;;;;0.02;100.00;96414.81;5054985;28;20779;-72
2021/12/03 08:51:13;;;;;;;6.97;5.17;;;;;;;-0.09;100.00;96416.59;5049776;28;20440;-72
2021/12/03 08:56:25;;;;;;;8.53;4.73;;;;;;;-0.40;100.00;96405.31;5090657;28;20412;-71
2021/12/03 08:58:52;;;;;;;8.87;5.70;;;;;;;-0.20;100.00;96423.59;5038926;28;20436;-72
2021/12/03 09:01:19;;;;;;;7.20;5.90;;;;;;;-0.20;100.00;96430.59;5071510;28;20475;-72
2021/12/03 09:03:46;;;;;;;5.60;5.10;;;;;;;-0.33;100.00;96414.44;5054086;28;20803;-73
2021/12/03 09:06:13;;;;;;;8.97;5.90;;;;;;;-0.17;100.00;96427.47;5053669;28;20467;-72
2021/12/03 09:08:39;;;;;;;7.77;5.63;;;;;;;-0.26;100.00;96408.25;5053386;28;20428;-72
2021/12/03 09:11:06;;;;;;;6.80;5.63;;;;;;;-0.02;100.00;96441.28;5053464;28;20452;-72
2021/12/03 09:13:33;;;;;;;6.03;5.43;;;;;;;-0.08;100.00;96428.56;5070276;28;20939;-72
2021/12/03 09:16:04;;;;;;;6.20;4.40;;;;;;;-0.03;100.00;96437.13;5053483;28;20535;-72
2021/12/03 09:18:37;;;;;;;6.20;5.40;;;;;;;0.01;100.00;96437.44;5071463;28;20428;-72
2021/12/03 09:21:22;;;;;;;5.40;3.93;;;;;;;0.01;100.00;96434.84;5055406;28;20472;-72
2021/12/03 09:26:38;;;;;;;8.47;7.30;;;;;;;0.06;100.00;96444.44;5070029;28;20484;-72
2021/12/03 09:29:08;;;;;;;22.27;16.30;;;;;;;0.07;100.00;96435.63;5069877;28;20428;-72
2021/12/03 09:31:37;;;;;;;22.57;16.70;;;;;;;0.04;100.00;96438.72;5071306;28;20456;-71
2021/12/03 09:34:13;;;;;;;19.23;14.73;;;;;;;0.02;100.00;96439.00;5036980;28;20858;-72
2021/12/03 09:36:41;;;;;;;8.57;7.13;;;;;;;0.06;100.00;96445.22;5053153;28;20427;-72
2021/12/03 09:39:15;;;;;;;66.87;48.73;;;;;;;-0.10;100.00;96421.03;5053308;28;20443;-71
2021/12/03 09:41:42;;;;;;;11.97;9.87;;;;;;;0.13;100.00;96437.94;5036582;28;20567;-72
2021/12/03 09:44:09;;;;;;;16.00;11.90;;;;;;;-0.19;100.00;96406.19;5054509;28;20475;-72
2021/12/03 09:46:36;;;;;;;17.07;14.80;;;;;;;-0.06;100.00;96414.28;5074923;28;20843;-72
2021/12/03 09:56:55;;;;;;;10.00;7.37;;;;;;;0.19;100.00;96434.34;5056758;28;20431;-72
2021/12/03 10:05:17;;;;;;;5.43;4.93;;;;;;;0.03;100.00;96388.56;5073088;28;20530;-72
2021/12/03 10:13:20;;;;;;;7.00;5.63;;;;;;;0.18;100.00;96408.63;5032181;28;20492;-72
2021/12/03 10:18:41;;;;;;;8.60;7.70;;;;;;;0.05;100.00;96412.47;5055885;28;20489;-72
2021/12/03 10:21:17;;;;;;;7.83;5.60;;;;;;;0.13;100.00;96427.56;5072852;28;20570;-72
2021/12/03 10:43:30;;;;;;;9.43;5.90;;;;;;;-0.01;100.00;96416.88;5073932;28;20446;-72
2021/12/03 10:52:16;;;;;;;63.70;43.93;;;;;;;0.13;100.00;96411.19;5073754;28;20967;-72
2021/12/03 10:58:12;;;;;;;32.17;22.27;;;;;;;0.03;100.00;96416.38;5073577;28;20477;-72
2021/12/03 11:08:39;;;;;;;9.90;6.30;;;;;;;0.07;100.00;96389.59;5034794;28;20440;-72
2021/12/03 11:14:55;;;;;;;8.13;7.30;;;;;;;0.09;100.00;96390.13;5055389;28;20775;-72
2021/12/03 11:45:13;;;;;;;4.67;4.27;;;;;;;0.10;100.00;96355.31;5054897;28;20479;-72
2021/12/03 11:53:59;;;;;;;5.50;4.37;;;;;;;0.26;100.00;96369.09;5072422;28;20472;-72
2021/12/03 14:00:50;;;;;;;5.03;4.63;;;;;;;0.11;100.00;96291.88;5056600;28;20478;-72
2021/12/03 14:21:14;;;;;;;6.47;5.20;;;;;;;0.67;100.00;96322.25;5056316;28;20470;-71
2021/12/03 14:44:37;;;;;;;5.93;4.30;;;;;;;0.34;100.00;96326.97;5054522;28;20440;-72
2021/12/03 14:49:48;;;;;;;5.90;5.10;;;;;;;0.15;100.00;96290.34;5072844;28;20500;-72
2021/12/03 14:52:30;;;;;;;10.70;4.20;;;;;;;0.16;100.00;96298.91;5056880;28;20452;-72
2021/12/03 14:55:07;;;;;;;4.73;4.20;;;;;;;0.24;100.00;96322.56;5074015;28;20416;-72
2021/12/03 14:57:44;;;;;;;4.23;3.93;;;;;;;0.27;100.00;96316.84;5055845;28;20505;-72
2021/12/03 15:00:18;;;;;;;6.50;4.20;;;;;;;0.26;100.00;96319.69;5039318;28;20428;-72
2021/12/03 15:35:01;;;;;;;34.30;21.10;;;;;;;-0.08;100.00;96270.84;5035244;28;20437;-72
2021/12/03 16:04:41;;;;;;;6.47;5.83;;;;;;;0.18;100.00;96289.03;5034886;28;20429;-72
2021/12/03 16:18:29;;;;;;;5.60;5.00;;;;;;;-0.03;100.00;96278.63;4990445;28;20439;-73
2021/12/03 16:21:23;;;;;;;8.80;5.93;;;;;;;0.08;100.00;96281.25;5049452;28;20459;-73
2021/12/03 16:53:26;;;;;;;17.23;14.77;;;;;;;0.25;100.00;96268.75;5050267;28;20425;-73
2021/12/03 16:56:26;;;;;;;8.90;7.90;;;;;;;-0.01;100.00;96247.97;5033841;28;20816;-73
2021/12/03 16:58:59;;;;;;;11.70;10.07;;;;;;;0.21;100.00;96252.91;5051751;28;20425;-72
2021/12/03 17:01:38;;;;;;;10.60;8.37;;;;;;;0.28;100.00;96257.84;5037005;28;20491;-72
2021/12/03 17:04:18;;;;;;;6.13;5.40;;;;;;;0.26;100.00;96241.69;5033894;28;20482;-73
2021/12/03 17:09:33;;;;;;;8.03;7.23;;;;;;;0.35;100.00;96263.53;5057853;28;20493;-73
2021/12/03 17:14:57;;;;;;;9.67;8.00;;;;;;;0.33;100.00;96267.44;5053714;28;20478;-73
2021/12/03 17:44:47;;;;;;;9.70;7.63;;;;;;;0.20;100.00;96233.16;5071716;28;20475;-74
2021/12/03 18:00:20;;;;;;;10.73;8.90;;;;;;;0.16;100.00;96213.16;5072429;28;20416;-74
2021/12/03 18:02:50;;;;;;;9.77;8.03;;;;;;;0.25;100.00;96211.56;5038055;28;20467;-74
2021/12/03 18:08:09;;;;;;;7.80;7.00;;;;;;;0.56;100.00;96235.69;5058052;28;21095;-74
2021/12/03 18:51:24;;;;;;;8.10;5.90;;;;;;;-0.61;100.00;96145.63;5015333;28;20989;-74
2021/12/03 18:56:32;;;;;;;11.30;7.47;;;;;;;-0.39;100.00;96175.78;5015227;28;20431;-73
2021/12/03 18:59:03;;;;;;;10.77;6.27;;;;;;;-0.48;100.00;96164.34;5032069;28;20430;-73
2021/12/03 19:01:32;;;;;;;8.80;5.60;;;;;;;-0.51;100.00;96157.06;5031893;28;20473;-72
2021/12/03 19:04:24;;;;;;;6.63;6.03;;;;;;;-0.40;100.00;96175.00;5031774;28;20553;-73
2021/12/03 19:09:22;;;;;;;7.40;5.63;;;;;;;-0.65;100.00;96136.81;5031657;28;20445;-74
2021/12/03 19:12:03;;;;;;;12.63;6.30;;;;;;;-0.49;100.00;96155.78;5015594;28;20464;-74
2021/12/03 19:14:34;;;;;;;5.87;4.70;;;;;;;-0.58;100.00;96136.53;5015266;28;20506;-73
2021/12/03 19:17:02;;;;;;;8.07;6.20;;;;;;;-0.40;100.00;96145.63;5031140;28;20434;-74
2021/12/03 19:19:30;;;;;;;5.90;5.00;;;;;;;-1.01;100.00;96060.75;5017433;28;20446;-74
2021/12/03 19:21:59;;;;;;;6.77;6.07;;;;;;;-0.62;100.00;96117.34;5032233;28;20493;-73
2021/12/03 19:24:27;;;;;;;11.00;6.63;;;;;;;-0.61;100.00;96117.09;5020820;28;20484;-76
2021/12/03 19:26:54;;;;;;;7.97;6.03;;;;;;;-0.82;100.00;96099.16;5075257;28;20432;-75
2021/12/03 19:29:21;;;;;;;7.73;6.27;;;;;;;-0.65;100.00;96112.69;5074811;28;20452;-74
2021/12/03 19:31:50;;;;;;;9.13;6.73;;;;;;;-0.57;100.00;96134.72;5075177;28;20551;-74
2021/12/03 19:34:21;;;;;;;12.23;7.10;;;;;;;-0.62;100.00;96131.09;5075709;28;20434;-74
2021/12/03 19:36:47;;;;;;;7.13;5.87;;;;;;;-0.49;100.00;96131.63;5074945;28;20466;-74
2021/12/03 19:39:17;;;;;;;9.33;7.07;;;;;;;-0.73;100.00;96101.00;5074300;28;20497;-74
2021/12/03 19:41:53;;;;;;;9.43;7.03;;;;;;;-0.54;100.00;96121.22;5074431;28;20478;-74
2021/12/03 19:44:34;;;;;;;9.00;8.10;;;;;;;-0.61;100.00;96116.31;5074507;28;20421;-75
2021/12/03 19:47:02;;;;;;;9.47;7.53;;;;;;;-0.81;100.00;96080.72;5074558;28;20887;-74
2021/12/03 19:49:44;;;;;;;12.00;9.90;;;;;;;-0.72;100.00;96084.38;5059230;28;20433;-73
2021/12/03 19:52:22;;;;;;;9.37;7.67;;;;;;;-0.58;100.00;96091.63;5088746;28;21085;-74
2021/12/03 19:54:48;;;;;;;10.40;8.73;;;;;;;-0.70;100.00;96064.13;5071781;28;20432;-73
2021/12/03 19:57:15;;;;;;;9.60;8.00;;;;;;;-0.74;100.00;96072.69;5071718;28;20444;-72
2021/12/03 19:59:42;;;;;;;12.60;10.17;;;;;;;-0.63;100.00;96076.84;5071333;28;20436;-73
2021/12/03 20:02:09;;;;;;;9.40;8.30;;;;;;;-0.65;100.00;96069.34;5071643;28;20877;-72
2021/12/03 20:04:35;;;;;;;11.07;8.67;;;;;;;-0.84;100.00;96036.38;5071696;28;20481;-72
2021/12/03 20:07:04;;;;;;;13.00;8.50;;;;;;;-0.70;100.00;96061.53;5088537;28;20439;-72
2021/12/03 20:09:45;;;;;;;7.37;6.50;;;;;;;-0.80;100.00;96047.78;5073068;28;20436;-73
2021/12/03 20:12:18;;;;;;;6.60;6.00;;;;;;;-0.76;100.00;96054.03;5056890;28;20447;-73
2021/12/03 20:14:48;;;;;;;8.57;7.70;;;;;;;-0.92;100.00;96032.50;5073828;28;20523;-73
2021/12/03 20:17:41;;;;;;;11.20;8.17;;;;;;;-0.78;100.00;96050.91;5056809;28;20463;-73
2021/12/03 20:20:06;;;;;;;7.13;6.17;;;;;;;-0.85;100.00;96034.81;5076430;28;20448;-73
2021/12/03 20:25:37;;;;;;;8.63;6.33;;;;;;;-1.00;100.00;96026.00;5076278;28;20424;-72
2021/12/03 20:28:11;;;;;;;7.43;6.40;;;;;;;-1.03;100.00;96013.56;5054378;28;20774;-74
2021/12/03 20:30:46;;;;;;;7.47;6.77;;;;;;;-0.92;100.00;96046.25;5072753;28;20424;-74
2021/12/03 20:36:02;;;;;;;7.43;6.70;;;;;;;-0.86;100.00;96039.22;5079194;28;20826;-74
2021/12/03 20:38:30;;;;;;;7.20;4.90;;;;;;;-0.91;100.00;96041.84;5072741;28;20412;-74
2021/12/03 20:41:01;;;;;;;6.70;5.80;;;;;;;-1.04;100.00;96030.16;5037362;28;20883;-75
2021/12/03 20:43:40;;;;;;;9.33;6.63;;;;;;;-1.11;100.00;96023.66;5071816;28;20448;-75
2021/12/03 21:07:55;;;;;;;7.60;5.73;;;;;;;-0.92;100.00;96009.91;5012441;28;20513;-74
2021/12/03 21:11:03;;;;;;;8.33;6.67;;;;;;;-0.87;100.00;96023.91;5027800;28;21055;-74
2021/12/03 21:13:33;;;;;;;7.77;5.70;;;;;;;-0.98;100.00;95999.78;4997139;28;20807;-75
2021/12/03 21:19:03;;;;;;;7.00;6.33;;;;;;;-0.94;100.00;95998.22;5029713;28;20441;-74
2021/12/03 21:24:20;;;;;;;6.30;5.70;;;;;;;-0.91;100.00;95998.50;5009801;28;20527;-74
2021/12/03 21:26:51;;;;;;;10.20;6.30;;;;;;;-0.98;100.00;95995.38;5025851;28;20453;-73
2021/12/03 21:29:41;;;;;;;6.87;6.17;;;;;;;-1.11;100.00;95964.78;5017440;28;20953;-73
2021/12/03 21:38:06;;;;;;;8.90;6.50;;;;;;;-1.02;100.00;95978.00;5047502;28;20523;-74
2021/12/03 21:43:20;;;;;;;7.40;6.63;;;;;;;-1.06;100.00;95966.63;5053911;28;20445;-72
2021/12/03 21:45:48;;;;;;;7.93;6.70;;;;;;;-0.91;100.00;95977.75;5055175;28;20445;-75
2021/12/03 21:48:15;;;;;;;9.37;7.50;;;;;;;-0.89;100.00;95980.06;5040156;28;20498;-74
2021/12/03 21:50:41;;;;;;;6.90;6.20;;;;;;;-1.11;100.00;95938.84;5037790;28;20898;-74
2021/12/03 21:53:08;;;;;;;9.70;7.10;;;;;;;-0.85;100.00;95980.31;5053281;28;20496;-74
2021/12/03 21:55:39;;;;;;;7.23;6.53;;;;;;;-1.02;100.00;95952.06;5036776;28;20884;-73
2021/12/03 21:58:06;;;;;;;12.27;8.00;;;;;;;-0.91;100.00;95962.19;5054288;28;20515;-73
2021/12/03 22:00:33;;;;;;;12.63;8.03;;;;;;;-1.10;100.00;95926.66;5036835;28;20984;-73
2021/12/03 22:03:00;;;;;;;8.47;6.90;;;;;;;-1.20;100.00;95924.88;5036449;28;20474;-73
2021/12/03 22:05:27;;;;;;;11.03;7.67;;;;;;;-1.11;100.00;95938.84;5054191;28;20441;-73
2021/12/03 22:07:54;;;;;;;8.93;6.67;;;;;;;-1.15;100.00;95924.06;5053034;28;20436;-73
2021/12/03 22:10:22;;;;;;;11.83;8.50;;;;;;;-0.96;100.00;95951.03;5036812;28;20448;-73
2021/12/03 22:12:49;;;;;;;10.50;7.60;;;;;;;-0.96;100.00;95927.66;5065271;28;20456;-73
2021/12/03 22:15:16;;;;;;;12.13;7.40;;;;;;;-1.02;100.00;95929.50;5073939;28;20439;-73
2021/12/03 22:17:42;;;;;;;9.07;8.13;;;;;;;-0.99;100.00;95933.38;5090403;28;20444;-73
2021/12/03 22:20:13;;;;;;;7.63;6.93;;;;;;;-1.24;100.00;95903.06;5057842;28;20432;-73
2021/12/03 22:22:40;;;;;;;7.77;7.07;;;;;;;-1.05;100.00;95926.66;5090020;28;21064;-73
2021/12/03 22:25:07;;;;;;;11.40;6.40;;;;;;;-1.11;100.00;95914.72;5074854;28;20432;-73
2021/12/03 22:27:36;;;;;;;8.77;7.83;;;;;;;-1.44;100.00;95854.63;5090230;28;21056;-73
2021/12/03 22:30:26;;;;;;;8.00;7.23;;;;;;;-1.30;100.00;95878.97;5090031;28;20424;-73
2021/12/03 22:32:53;;;;;;;14.60;6.87;;;;;;;-1.11;100.00;95910.31;5032407;28;20441;-75
2021/12/03 22:35:21;;;;;;;9.40;7.47;;;;;;;-1.18;100.00;95898.69;5015907;28;20949;-73
2021/12/03 22:37:47;;;;;;;8.47;7.10;;;;;;;-1.23;100.00;95889.06;5032096;28;20496;-73
2021/12/03 22:40:14;;;;;;;9.60;8.30;;;;;;;-1.12;100.00;95895.03;5032057;28;20453;-73
2021/12/03 22:42:43;;;;;;;9.73;8.33;;;;;;;-1.24;100.00;95859.78;5031654;28;20474;-73
2021/12/03 22:45:13;;;;;;;7.93;7.13;;;;;;;-1.18;100.00;95876.09;5015509;28;20442;-73
2021/12/03 22:47:51;;;;;;;7.80;7.00;;;;;;;-1.23;100.00;95868.31;5032073;28;20789;-73
2021/12/03 22:50:29;;;;;;;12.37;7.97;;;;;;;-1.18;100.00;95864.97;5031358;28;20464;-73
2021/12/03 22:52:57;;;;;;;9.83;8.17;;;;;;;-1.06;100.00;95886.97;5032290;28;20426;-73
2021/12/03 22:55:23;;;;;;;11.80;8.33;;;;;;;-1.18;100.00;95875.34;5032019;28;20438;-73
2021/12/03 22:57:51;;;;;;;9.90;8.73;;;;;;;-1.29;100.00;95861.59;5015311;28;20480;-73
2021/12/03 23:00:44;;;;;;;10.73;8.27;;;;;;;-1.52;100.00;95800.72;5032031;28;20446;-73
2021/12/03 23:03:12;;;;;;;8.83;7.33;;;;;;;-1.06;100.00;95863.63;5031652;28;20474;-73
2021/12/03 23:05:41;;;;;;;8.50;7.27;;;;;;;-1.03;100.00;95863.09;5015264;28;20441;-73
2021/12/03 23:08:09;;;;;;;11.10;7.80;;;;;;;-1.21;100.00;95838.50;5015358;28;20869;-73
2021/12/03 23:10:36;;;;;;;10.60;7.00;;;;;;;-1.08;100.00;95862.31;5058621;28;20491;-73
2021/12/03 23:13:03;;;;;;;8.97;8.07;;;;;;;-1.32;100.00;95847.34;5072726;28;20429;-73
2021/12/03 23:15:30;;;;;;;9.10;8.00;;;;;;;-1.01;100.00;95868.81;5072661;28;20811;-73
2021/12/03 23:17:58;;;;;;;9.73;8.23;;;;;;;-0.96;100.00;95871.38;5072633;28;20531;-73
2021/12/03 23:20:25;;;;;;;8.93;7.17;;;;;;;-0.80;100.00;95881.69;5089259;28;20507;-73
2021/12/03 23:22:53;;;;;;;9.27;7.50;;;;;;;-1.08;100.00;95844.16;5072463;28;20513;-73
2021/12/03 23:25:19;;;;;;;12.13;9.07;;;;;;;-1.00;100.00;95870.34;5073694;28;20432;-73
2021/12/03 23:27:46;;;;;;;9.90;8.87;;;;;;;-1.05;100.00;95870.38;5055798;28;20845;-73
2021/12/03 23:30:14;;;;;;;9.37;7.23;;;;;;;-1.03;100.00;95865.69;5072504;28;20436;-73
2021/12/03 23:32:41;;;;;;;9.37;6.93;;;;;;;-1.07;100.00;95850.91;5055516;28;20491;-73
2021/12/03 23:35:09;;;;;;;9.53;8.60;;;;;;;-1.22;100.00;95831.75;5073453;28;20939;-73
2021/12/03 23:37:37;;;;;;;16.43;9.50;;;;;;;-1.26;100.00;95806.63;5088804;28;20444;-73
2021/12/03 23:40:05;;;;;;;15.90;8.70;;;;;;;-1.21;100.00;95822.16;5072085;28;20482;-73
2021/12/03 23:42:32;;;;;;;16.63;10.47;;;;;;;-1.28;100.00;95799.13;5071904;28;20538;-73
2021/12/03 23:44:59;;;;;;;11.70;8.77;;;;;;;-1.22;100.00;95795.44;5055441;28;20456;-73
2021/12/03 23:47:26;;;;;;;20.30;9.30;;;;;;;-1.05;100.00;95812.53;5055407;28;21238;-73
2021/12/03 23:49:52;;;;;;;11.33;8.30;;;;;;;-1.27;100.00;95768.78;5072468;28;20843;-74
2021/12/03 23:52:19;;;;;;;9.27;7.30;;;;;;;-1.32;100.00;95756.63;5071544;28;20852;-74
2021/12/03 23:54:46;;;;;;;14.27;8.33;;;;;;;-1.13;100.00;95776.75;5088756;28;20436;-74
2021/12/03 23:57:13;;;;;;;8.93;8.03;;;;;;;-1.23;100.00;95756.81;5071469;28;20441;-74
2021/12/03 23:59:41;;;;;;;10.30;7.90;;;;;;;-1.45;100.00;95746.03;5088413;28;20490;-74
